createdAt,value
2022-11-29T00:01:48.995Z,4.50
2022-11-29T00:04:16.334Z,4.50
2022-11-29T00:06:43.689Z,4.40
2022-11-29T00:09:12.363Z,4.40
2022-11-29T00:11:58.910Z,4.40
2022-11-29T00:14:27.217Z,4.40
2022-11-29T00:16:56.236Z,4.40
2022-11-29T00:19:23.681Z,4.40
2022-11-29T00:21:51.160Z,4.30
2022-11-29T00:24:18.520Z,4.30
2022-11-29T00:26:45.965Z,4.30
2022-11-29T00:29:13.734Z,4.30
2022-11-29T00:31:41.408Z,4.30
2022-11-29T00:34:10.378Z,4.30
2022-11-29T00:36:38.209Z,4.30
2022-11-29T00:39:05.893Z,4.40
2022-11-29T00:41:33.532Z,4.30
2022-11-29T00:44:00.906Z,4.40
2022-11-29T00:46:28.284Z,4.30
2022-11-29T00:48:55.645Z,4.30
2022-11-29T00:51:23.085Z,4.30
2022-11-29T00:53:50.638Z,4.30
2022-11-29T00:56:18.006Z,4.20
2022-11-29T00:58:45.341Z,4.20
2022-11-29T01:01:12.839Z,4.20
2022-11-29T01:03:40.479Z,4.30
2022-11-29T01:06:09.602Z,4.20
2022-11-29T01:08:37.295Z,4.20
2022-11-29T01:11:10.931Z,4.20
2022-11-29T01:13:38.910Z,4.20
2022-11-29T01:16:06.551Z,4.20
2022-11-29T01:18:34.410Z,4.20
2022-11-29T01:21:12.568Z,4.10
2022-11-29T01:23:40.460Z,4.20
2022-11-29T01:26:09.179Z,4.20
2022-11-29T01:28:37.645Z,4.20
2022-11-29T01:31:09.456Z,4.20
2022-11-29T01:33:37.407Z,4.20
2022-11-29T01:36:05.629Z,4.20
2022-11-29T01:38:33.238Z,4.20
2022-11-29T01:41:05.231Z,4.20
2022-11-29T01:43:33.288Z,4.20
2022-11-29T01:46:00.699Z,4.30
2022-11-29T01:48:29.899Z,4.30
2022-11-29T01:51:00.181Z,4.30
2022-11-29T01:53:28.415Z,4.30
2022-11-29T01:55:58.067Z,4.20
2022-11-29T01:58:25.553Z,4.30
2022-11-29T02:00:53.100Z,4.20
2022-11-29T02:03:20.466Z,4.30
2022-11-29T02:05:51.936Z,4.30
2022-11-29T02:08:29.418Z,4.30
2022-11-29T02:11:02.837Z,4.30
2022-11-29T02:13:30.289Z,4.20
2022-11-29T02:16:08.287Z,4.20
2022-11-29T02:18:44.903Z,4.30
2022-11-29T02:21:21.513Z,4.20
2022-11-29T02:24:07.993Z,4.20
2022-11-29T02:26:54.202Z,4.20
2022-11-29T02:29:29.719Z,4.20
2022-11-29T02:32:03.218Z,4.20
2022-11-29T02:34:43.213Z,4.10
2022-11-29T02:37:31.146Z,4.10
2022-11-29T02:40:01.629Z,4.20
2022-11-29T02:42:32.022Z,4.10
2022-11-29T02:44:59.396Z,4.20
2022-11-29T02:47:36.728Z,4.20
2022-11-29T02:50:23.036Z,4.20
2022-11-29T02:52:54.529Z,4.20
2022-11-29T02:55:29.486Z,4.20
2022-11-29T02:57:56.852Z,4.10
2022-11-29T03:00:25.071Z,4.10
2022-11-29T03:02:56.014Z,4.10
2022-11-29T03:05:34.327Z,4.10
2022-11-29T03:08:12.514Z,4.10
2022-11-29T03:10:58.830Z,4.10
2022-11-29T03:13:45.086Z,4.10
2022-11-29T03:16:12.621Z,4.10
2022-11-29T03:18:51.029Z,4.10
2022-11-29T03:21:31.186Z,4.10
2022-11-29T03:24:01.053Z,4.10
2022-11-29T03:26:41.801Z,4.10
2022-11-29T03:29:38.753Z,4.10
2022-11-29T03:32:26.573Z,4.10
2022-11-29T03:34:57.136Z,4.10
2022-11-29T03:37:34.374Z,4.10
2022-11-29T03:40:10.081Z,4.10
2022-11-29T03:42:43.600Z,4.10
2022-11-29T03:45:11.205Z,4.10
2022-11-29T03:47:42.737Z,4.10
2022-11-29T03:50:13.554Z,4.10
2022-11-29T03:52:53.460Z,4.10
2022-11-29T03:55:32.139Z,4.20
2022-11-29T03:58:13.225Z,4.20
2022-11-29T04:00:49.776Z,4.20
2022-11-29T04:03:23.406Z,4.20
2022-11-29T04:05:53.855Z,4.20
2022-11-29T04:08:41.721Z,4.20
2022-11-29T04:11:28.099Z,4.20
2022-11-29T04:14:14.418Z,4.30
2022-11-29T04:16:54.914Z,4.30
2022-11-29T04:19:34.250Z,4.30
2022-11-29T04:22:31.221Z,4.30
2022-11-29T04:25:10.837Z,4.30
2022-11-29T04:28:03.541Z,4.30
2022-11-29T04:30:38.855Z,4.30
2022-11-29T04:33:07.806Z,4.30
2022-11-29T04:35:53.936Z,4.30
2022-11-29T04:38:38.080Z,4.30
2022-11-29T04:41:24.261Z,4.30
2022-11-29T04:43:55.477Z,4.30
2022-11-29T04:46:41.778Z,4.30
2022-11-29T04:49:18.337Z,4.30
2022-11-29T04:51:45.706Z,4.40
2022-11-29T04:54:36.400Z,4.40
2022-11-29T04:57:17.802Z,4.40
2022-11-29T04:59:45.280Z,4.40
2022-11-29T05:02:12.691Z,4.40
2022-11-29T05:04:50.953Z,4.40
2022-11-29T05:07:32.914Z,4.40
2022-11-29T05:10:18.341Z,4.50
2022-11-29T05:12:54.835Z,4.50
2022-11-29T05:15:28.186Z,4.50
2022-11-29T05:18:04.755Z,4.50
2022-11-29T05:20:52.437Z,4.50
2022-11-29T05:23:19.775Z,4.50
2022-11-29T05:26:00.449Z,4.50
2022-11-29T05:28:35.805Z,4.50
2022-11-29T05:31:03.224Z,4.50
2022-11-29T05:33:39.702Z,4.50
2022-11-29T05:36:14.892Z,4.50
2022-11-29T05:38:42.419Z,4.50
2022-11-29T05:41:09.715Z,4.60
2022-11-29T05:43:52.348Z,4.50
2022-11-29T05:46:19.887Z,4.50
2022-11-29T05:48:58.670Z,4.50
2022-11-29T05:51:29.010Z,4.50
2022-11-29T05:54:13.086Z,4.50
2022-11-29T05:56:40.459Z,4.50
2022-11-29T05:59:17.148Z,4.50
2022-11-29T06:01:47.813Z,4.60
2022-11-29T06:04:34.358Z,4.50
2022-11-29T06:07:34.345Z,4.50
2022-11-29T06:10:17.930Z,4.50
2022-11-29T06:12:48.999Z,4.50
2022-11-29T06:15:19.722Z,4.40
2022-11-29T06:18:06.835Z,4.50
2022-11-29T06:20:43.407Z,4.40
2022-11-29T06:23:17.772Z,4.50
2022-11-29T06:25:53.443Z,4.50
2022-11-29T06:28:36.730Z,4.50
2022-11-29T06:31:04.225Z,4.50
2022-11-29T06:33:37.982Z,4.50
2022-11-29T06:36:11.715Z,4.50
2022-11-29T06:38:39.241Z,4.50
2022-11-29T06:41:06.827Z,4.50
2022-11-29T06:43:34.367Z,4.50
2022-11-29T06:46:20.685Z,4.50
2022-11-29T06:49:09.625Z,4.50
2022-11-29T06:51:49.604Z,4.50
2022-11-29T06:54:16.981Z,4.50
2022-11-29T06:56:52.090Z,4.50
2022-11-29T06:59:38.443Z,4.50
2022-11-29T07:02:24.862Z,4.50
2022-11-29T07:05:11.081Z,4.50
2022-11-29T07:07:38.750Z,4.50
2022-11-29T07:10:09.432Z,4.50
2022-11-29T07:12:41.102Z,4.50
2022-11-29T07:15:12.731Z,4.60
2022-11-29T07:17:46.523Z,4.50
2022-11-29T07:20:16.986Z,4.50
2022-11-29T07:23:23.485Z,4.60
2022-11-29T07:25:50.865Z,4.60
2022-11-29T07:28:36.710Z,4.60
2022-11-29T07:31:23.318Z,4.60
2022-11-29T07:33:50.849Z,4.60
2022-11-29T07:36:47.746Z,4.60
2022-11-29T07:39:33.545Z,4.70
2022-11-29T07:42:04.197Z,4.70
2022-11-29T07:44:50.380Z,4.70
2022-11-29T07:47:17.889Z,4.70
2022-11-29T07:49:45.417Z,4.70
2022-11-29T07:52:14.171Z,4.80
2022-11-29T07:54:41.919Z,4.80
2022-11-29T07:57:09.341Z,4.80
2022-11-29T07:59:36.860Z,4.80
2022-11-29T08:02:10.132Z,4.80
2022-11-29T08:04:44.523Z,4.80
2022-11-29T08:07:12.321Z,4.80
2022-11-29T08:09:39.741Z,4.80
2022-11-29T08:12:07.163Z,4.80
2022-11-29T08:14:34.598Z,4.80
2022-11-29T08:17:01.996Z,4.80
2022-11-29T08:19:29.650Z,4.80
2022-11-29T08:21:57.030Z,4.80
2022-11-29T08:24:24.414Z,4.70
2022-11-29T08:26:51.818Z,4.70
2022-11-29T08:29:19.191Z,4.60
2022-11-29T08:31:46.998Z,4.60
2022-11-29T08:34:14.406Z,4.60
2022-11-29T08:36:41.947Z,4.60
2022-11-29T08:39:09.853Z,4.70
2022-11-29T08:41:37.371Z,4.70
2022-11-29T08:44:05.505Z,4.70
2022-11-29T08:46:51.679Z,4.80
2022-11-29T08:49:19.085Z,4.80
2022-11-29T08:51:46.522Z,4.80
2022-11-29T08:54:13.922Z,4.80
2022-11-29T08:59:30.694Z,4.80
2022-11-29T09:01:58.089Z,4.80
2022-11-29T09:04:25.453Z,4.90
2022-11-29T09:06:53.092Z,4.80
2022-11-29T09:09:20.541Z,4.90
2022-11-29T09:11:49.581Z,4.90
2022-11-29T09:14:17.849Z,4.90
2022-11-29T09:16:45.365Z,5.00
2022-11-29T09:19:14.041Z,5.00
2022-11-29T09:21:41.567Z,5.10
2022-11-29T09:24:10.347Z,5.10
2022-11-29T09:26:38.248Z,5.20
2022-11-29T09:29:06.958Z,5.20
2022-11-29T09:31:35.060Z,5.20
2022-11-29T09:34:02.643Z,5.30
2022-11-29T09:36:30.813Z,5.30
2022-11-29T09:38:59.181Z,5.30
2022-11-29T09:41:48.494Z,5.40
2022-11-29T09:44:29.424Z,5.50
2022-11-29T09:47:00.591Z,5.50
2022-11-29T09:49:46.732Z,5.60
2022-11-29T09:52:20.460Z,5.60
2022-11-29T09:54:51.089Z,5.60
2022-11-29T09:57:19.358Z,5.70
2022-11-29T09:59:48.783Z,5.80
2022-11-29T10:02:22.331Z,5.80
2022-11-29T10:04:52.108Z,5.90
2022-11-29T10:07:37.786Z,5.90
2022-11-29T10:10:13.464Z,6.00
2022-11-29T10:12:46.665Z,6.00
2022-11-29T10:15:19.931Z,6.00
2022-11-29T10:17:50.371Z,6.00
2022-11-29T10:20:25.552Z,6.00
2022-11-29T10:22:56.215Z,6.10
2022-11-29T10:25:26.241Z,6.10
2022-11-29T10:27:54.439Z,6.10
2022-11-29T10:30:22.134Z,6.20
2022-11-29T10:32:52.019Z,6.20
2022-11-29T10:35:20.922Z,6.10
2022-11-29T10:38:22.284Z,6.20
2022-11-29T10:40:37.923Z,6.20
2022-11-29T10:43:05.383Z,6.20
2022-11-29T10:45:35.133Z,6.30
2022-11-29T10:48:04.690Z,6.30
2022-11-29T10:50:33.564Z,6.30
2022-11-29T10:53:04.663Z,6.40
2022-11-29T10:55:36.577Z,6.40
2022-11-29T10:58:12.425Z,6.50
2022-11-29T11:01:06.829Z,6.50
2022-11-29T11:03:39.992Z,6.50
2022-11-29T11:06:19.688Z,6.60
2022-11-29T11:08:52.633Z,6.60
2022-11-29T11:11:38.767Z,6.70
2022-11-29T11:14:18.122Z,6.70
2022-11-29T11:16:45.691Z,6.70
2022-11-29T11:19:25.212Z,6.70
2022-11-29T11:21:52.689Z,6.80
2022-11-29T11:24:30.454Z,6.80
2022-11-29T11:26:58.565Z,6.90
2022-11-29T11:29:28.303Z,6.90
2022-11-29T11:31:57.736Z,7.00
2022-11-29T11:34:26.626Z,7.00
2022-11-29T11:36:54.967Z,7.10
2022-11-29T11:39:23.137Z,7.10
2022-11-29T11:42:10.522Z,7.20
2022-11-29T11:44:48.432Z,7.20
2022-11-29T11:47:22.188Z,7.20
2022-11-29T11:50:19.341Z,7.30
2022-11-29T11:52:50.846Z,7.30
2022-11-29T11:55:21.177Z,7.30
2022-11-29T11:57:58.883Z,7.30
2022-11-29T12:01:02.399Z,7.30
2022-11-29T12:03:37.710Z,7.30
2022-11-29T12:06:08.389Z,7.30
2022-11-29T12:08:36.832Z,7.30
2022-11-29T12:11:07.559Z,7.20
2022-11-29T12:13:36.295Z,7.10
2022-11-29T12:16:18.410Z,7.10
2022-11-29T12:18:51.092Z,7.10
2022-11-29T12:21:23.465Z,7.10
2022-11-29T12:24:00.138Z,7.10
2022-11-29T12:26:56.481Z,7.10
2022-11-29T12:29:22.405Z,7.10
2022-11-29T12:31:49.837Z,7.10
2022-11-29T12:34:23.298Z,7.10
2022-11-29T12:37:09.535Z,7.10
2022-11-29T12:39:52.547Z,7.10
2022-11-29T12:42:40.393Z,7.00
2022-11-29T12:45:31.137Z,6.90
2022-11-29T12:48:10.269Z,6.90
2022-11-29T12:50:56.474Z,6.90
2022-11-29T12:53:27.688Z,6.80
2022-11-29T12:56:08.392Z,6.80
2022-11-29T12:58:44.209Z,6.80
2022-11-29T13:01:36.447Z,6.80
2022-11-29T13:04:20.458Z,6.70
2022-11-29T13:06:53.878Z,6.70
2022-11-29T13:09:24.490Z,6.80
2022-11-29T13:11:57.926Z,6.80
2022-11-29T13:14:45.134Z,6.70
2022-11-29T13:17:21.629Z,6.70
2022-11-29T13:19:52.215Z,6.70
2022-11-29T13:22:38.520Z,6.70
2022-11-29T13:25:17.557Z,6.70
2022-11-29T13:27:50.195Z,6.60
2022-11-29T13:30:17.743Z,6.60
2022-11-29T13:32:51.717Z,6.60
2022-11-29T13:35:21.562Z,6.50
2022-11-29T13:37:55.333Z,6.50
2022-11-29T13:40:32.280Z,6.50
2022-11-29T13:43:04.540Z,6.50
2022-11-29T13:45:37.661Z,6.50
2022-11-29T13:48:27.612Z,6.50
2022-11-29T13:50:56.779Z,6.40
2022-11-29T13:53:25.402Z,6.40
2022-11-29T13:56:00.862Z,6.30
2022-11-29T13:58:28.223Z,6.30
2022-11-29T14:01:07.664Z,6.30
2022-11-29T14:03:42.489Z,6.30
2022-11-29T14:06:31.865Z,6.40
2022-11-29T14:09:19.623Z,6.40
2022-11-29T14:11:49.618Z,6.30
2022-11-29T14:14:17.052Z,6.20
2022-11-29T14:16:44.433Z,6.00
2022-11-29T14:19:21.228Z,5.90
2022-11-29T14:22:07.105Z,5.80
2022-11-29T14:24:35.409Z,5.80
2022-11-29T14:27:05.822Z,5.70
2022-11-29T14:29:55.141Z,5.60
2022-11-29T14:32:22.829Z,5.50
2022-11-29T14:34:59.391Z,5.50
2022-11-29T14:37:33.980Z,5.40
2022-11-29T14:40:03.295Z,5.40
2022-11-29T14:42:31.245Z,5.30
2022-11-29T14:45:01.664Z,5.30
2022-11-29T14:47:32.753Z,5.20
2022-11-29T14:50:01.546Z,5.10
2022-11-29T14:52:33.702Z,5.10
2022-11-29T14:55:01.136Z,5.00
2022-11-29T14:57:47.015Z,4.90
2022-11-29T15:00:15.209Z,4.80
2022-11-29T15:02:46.004Z,4.80
2022-11-29T15:05:17.073Z,4.70
2022-11-29T15:07:47.320Z,4.70
2022-11-29T15:10:18.711Z,4.80
2022-11-29T15:12:47.188Z,4.70
2022-11-29T15:15:33.279Z,4.70
2022-11-29T15:18:06.597Z,4.80
2022-11-29T15:21:06.491Z,4.80
2022-11-29T15:23:57.090Z,4.70
2022-11-29T15:26:24.497Z,4.70
2022-11-29T15:28:51.817Z,4.70
2022-11-29T15:31:20.395Z,4.60
2022-11-29T15:33:49.195Z,4.60
2022-11-29T15:36:21.015Z,4.60
2022-11-29T15:38:55.894Z,4.60
2022-11-29T15:41:27.896Z,4.70
2022-11-29T15:43:59.654Z,4.70
2022-11-29T15:46:28.978Z,4.70
2022-11-29T15:49:14.947Z,4.70
2022-11-29T15:51:42.711Z,4.70
2022-11-29T15:54:36.566Z,4.70
2022-11-29T15:57:13.638Z,4.70
2022-11-29T15:59:43.769Z,4.70
2022-11-29T16:02:19.857Z,4.80
2022-11-29T16:04:49.301Z,4.70
2022-11-29T16:07:18.163Z,4.70
2022-11-29T16:09:48.149Z,4.70
2022-11-29T16:12:17.348Z,4.80
2022-11-29T16:14:48.578Z,4.70
2022-11-29T16:17:16.688Z,4.70
2022-11-29T16:19:44.867Z,4.70
2022-11-29T16:22:12.299Z,4.60
2022-11-29T16:24:45.626Z,4.60
2022-11-29T16:27:14.281Z,4.60
2022-11-29T16:29:45.040Z,4.60
2022-11-29T16:32:21.686Z,4.60
2022-11-29T16:34:49.420Z,4.60
2022-11-29T16:37:19.061Z,4.60
2022-11-29T16:39:48.518Z,4.60
2022-11-29T16:42:29.498Z,4.60
2022-11-29T16:45:02.916Z,4.60
2022-11-29T16:47:52.414Z,4.60
2022-11-29T16:50:23.022Z,4.60
2022-11-29T16:52:56.844Z,4.50
2022-11-29T16:55:24.563Z,4.50
2022-11-29T16:57:52.392Z,4.50
2022-11-29T17:00:23.287Z,4.40
2022-11-29T17:02:50.768Z,4.40
2022-11-29T17:05:18.148Z,4.40
2022-11-29T17:07:45.731Z,4.50
2022-11-29T17:10:15.104Z,4.50
2022-11-29T17:12:47.791Z,4.50
2022-11-29T17:15:16.019Z,4.50
2022-11-29T17:17:43.664Z,4.40
2022-11-29T17:20:12.442Z,4.40
2022-11-29T17:22:39.843Z,4.40
2022-11-29T17:25:07.483Z,4.40
2022-11-29T17:27:35.458Z,4.40
2022-11-29T17:30:03.549Z,4.40
2022-11-29T17:32:33.095Z,4.40
2022-11-29T17:35:00.458Z,4.30
2022-11-29T17:37:28.874Z,4.30
2022-11-29T17:39:56.736Z,4.30
2022-11-29T17:42:24.232Z,4.30
2022-11-29T17:44:51.605Z,4.20
2022-11-29T17:47:19.041Z,4.20
2022-11-29T17:49:46.615Z,4.20
2022-11-29T17:52:14.105Z,4.20
2022-11-29T17:54:41.556Z,4.20
2022-11-29T17:57:09.156Z,4.20
2022-11-29T17:59:36.628Z,4.20
2022-11-29T18:02:04.288Z,4.10
2022-11-29T18:04:31.673Z,4.10
2022-11-29T18:06:59.150Z,4.10
2022-11-29T18:09:26.493Z,4.10
2022-11-29T18:11:53.913Z,4.10
2022-11-29T18:14:28.318Z,4.00
2022-11-29T18:16:55.999Z,4.00
2022-11-29T18:19:23.623Z,4.00
2022-11-29T18:21:51.590Z,3.90
2022-11-29T18:24:19.157Z,3.90
2022-11-29T18:26:46.861Z,3.90
2022-11-29T18:29:14.781Z,3.90
2022-11-29T18:31:43.431Z,3.90
2022-11-29T18:34:11.759Z,3.90
2022-11-29T18:36:42.892Z,3.90
2022-11-29T18:39:14.239Z,3.80
2022-11-29T18:41:43.026Z,3.80
2022-11-29T18:44:11.867Z,3.80
2022-11-29T18:46:40.260Z,3.80
2022-11-29T18:49:08.210Z,3.80
2022-11-29T18:51:36.091Z,3.80
2022-11-29T18:54:03.691Z,3.90
2022-11-29T18:56:32.764Z,3.80
2022-11-29T18:59:05.247Z,3.90
2022-11-29T19:01:34.333Z,3.90
2022-11-29T19:04:02.028Z,3.80
2022-11-29T19:06:37.115Z,3.80
2022-11-29T19:09:07.514Z,3.80
2022-11-29T19:11:34.976Z,3.80
2022-11-29T19:14:11.151Z,3.80
2022-11-29T19:16:40.374Z,3.80
2022-11-29T19:19:07.887Z,3.80
2022-11-29T19:21:35.402Z,3.90
2022-11-29T19:24:04.211Z,3.90
2022-11-29T19:26:32.380Z,3.80
2022-11-29T19:29:00.553Z,3.80
2022-11-29T19:31:28.076Z,3.80
2022-11-29T19:33:55.980Z,3.80
2022-11-29T19:36:24.887Z,3.90
2022-11-29T19:38:54.045Z,3.90
2022-11-29T19:41:24.270Z,3.90
2022-11-29T19:43:51.861Z,3.90
2022-11-29T19:46:20.911Z,3.90
2022-11-29T19:48:48.687Z,3.90
2022-11-29T19:51:18.945Z,3.80
2022-11-29T19:53:46.959Z,3.90
2022-11-29T19:56:15.599Z,3.90
2022-11-29T19:58:43.179Z,3.90
2022-11-29T20:01:13.200Z,3.90
2022-11-29T20:03:41.166Z,3.90
2022-11-29T20:06:09.498Z,3.90
2022-11-29T20:08:37.452Z,3.90
2022-11-29T20:11:23.973Z,3.90
2022-11-29T20:13:56.544Z,3.90
2022-11-29T20:16:25.044Z,3.90
2022-11-29T20:18:53.260Z,3.90
2022-11-29T20:21:22.310Z,4.00
2022-11-29T20:23:49.697Z,4.00
2022-11-29T20:26:19.313Z,3.90
2022-11-29T20:28:47.297Z,4.00
2022-11-29T20:31:16.058Z,4.00
2022-11-29T20:33:44.554Z,3.90
2022-11-29T20:36:15.053Z,4.00
2022-11-29T20:38:59.941Z,4.00
2022-11-29T20:41:32.561Z,4.00
2022-11-29T20:44:01.671Z,4.00
2022-11-29T20:46:30.039Z,4.00
2022-11-29T20:49:01.680Z,4.10
2022-11-29T20:51:58.785Z,4.10
2022-11-29T20:54:26.230Z,4.10
2022-11-29T20:56:53.798Z,4.00
2022-11-29T20:59:21.163Z,4.10
2022-11-29T21:01:48.604Z,4.10
2022-11-29T21:04:21.628Z,4.10
2022-11-29T21:06:50.637Z,4.10
2022-11-29T21:09:18.035Z,4.10
2022-11-29T21:11:45.476Z,4.10
2022-11-29T21:14:13.105Z,4.10
2022-11-29T21:16:40.620Z,4.10
2022-11-29T21:19:12.489Z,4.10
2022-11-29T21:21:44.652Z,4.10
2022-11-29T21:24:30.923Z,4.10
2022-11-29T21:26:58.524Z,4.20
2022-11-29T21:29:26.022Z,4.20
2022-11-29T21:31:54.199Z,4.20
2022-11-29T21:34:21.671Z,4.20
2022-11-29T21:36:53.281Z,4.20
2022-11-29T21:39:22.710Z,4.20
2022-11-29T21:41:50.117Z,4.20
2022-11-29T21:44:17.489Z,4.20
2022-11-29T21:46:44.877Z,4.20
2022-11-29T21:49:12.240Z,4.20
2022-11-29T21:51:39.679Z,4.20
2022-11-29T21:54:07.060Z,4.20
2022-11-29T21:56:34.642Z,4.20
2022-11-29T21:59:02.071Z,4.20
2022-11-29T22:01:29.596Z,4.20
2022-11-29T22:03:57.111Z,4.20
2022-11-29T22:06:26.124Z,4.20
2022-11-29T22:08:53.552Z,4.20
2022-11-29T22:11:30.850Z,4.20
2022-11-29T22:14:15.108Z,4.20
2022-11-29T22:16:50.018Z,4.20
2022-11-29T22:19:27.944Z,4.20
2022-11-29T22:21:57.245Z,4.20
2022-11-29T22:24:26.237Z,4.20
2022-11-29T22:26:54.536Z,4.20
2022-11-29T22:29:22.130Z,4.20
2022-11-29T22:31:51.179Z,4.20
2022-11-29T22:34:18.975Z,4.20
2022-11-29T22:36:46.380Z,4.20
2022-11-29T22:39:14.258Z,4.20
2022-11-29T22:41:41.849Z,4.20
2022-11-29T22:44:09.248Z,4.20
2022-11-29T22:46:39.158Z,4.20
2022-11-29T22:49:06.828Z,4.20
2022-11-29T22:51:35.234Z,4.30
2022-11-29T22:54:04.051Z,4.30
2022-11-29T22:56:32.276Z,4.30
2022-11-29T22:58:59.642Z,4.30
2022-11-29T23:01:28.357Z,4.30
2022-11-29T23:03:56.930Z,4.30
2022-11-29T23:06:25.739Z,4.30
2022-11-29T23:08:54.391Z,4.30
2022-11-29T23:11:22.951Z,4.40
2022-11-29T23:13:50.571Z,4.40
2022-11-29T23:16:19.704Z,4.30
2022-11-29T23:18:47.387Z,4.40
2022-11-29T23:21:16.426Z,4.40
2022-11-29T23:23:44.141Z,4.40
2022-11-29T23:26:20.906Z,4.40
2022-11-29T23:28:49.204Z,4.30
2022-11-29T23:31:17.258Z,4.40
2022-11-29T23:33:44.732Z,4.40
2022-11-29T23:36:12.675Z,4.40
2022-11-29T23:38:40.032Z,4.40
2022-11-29T23:41:07.707Z,4.40
2022-11-29T23:43:36.201Z,4.40
2022-11-29T23:46:07.892Z,4.40
2022-11-29T23:48:35.424Z,4.40
2022-11-29T23:51:02.863Z,4.40
2022-11-29T23:53:30.528Z,4.40
2022-11-29T23:56:02.205Z,4.40
2022-11-29T23:58:30.413Z,4.40
